METAR Data
IDs: Format: Raw Decoded Include TAF

Data at: 1204 UTC 21 Apr 2021

METAR for:LFQA (Reims/Prunay Aprt, GE, FR)
Text:LFQA 211130Z AUTO VRB06KT CAVOK 18/06 Q1016
Temperature: 18.0°C ( 64°F)
Dewpoint: 6.0°C ( 43°F) [RH = 45%]
Pressure (altimeter):30.00 inches Hg (1016.0 mb)
Winds:variable direction winds at 7 MPH (6 knots; 3.1 m/s)
Visibility:6 or more sm (10+ km)
Ceiling:ceiling and visibility are OK
Clouds:unknown

TAF for:LFQA (Reims/Prunay Aprt, GE, FR)
Text:No data found